createdAt,value
2023-03-13T00:00:38.105Z,10.99
2023-03-13T00:01:38.080Z,10.99
2023-03-13T00:02:38.064Z,11.02
2023-03-13T00:03:38.061Z,11.02
2023-03-13T00:04:38.139Z,11.03
2023-03-13T00:05:38.033Z,11.02
2023-03-13T00:06:38.018Z,11.02
2023-03-13T00:07:38.004Z,11.03
2023-03-13T00:08:38.016Z,11.06
2023-03-13T00:09:37.983Z,11.02
2023-03-13T00:10:37.993Z,11.02
2023-03-13T00:11:37.982Z,11.01
2023-03-13T00:12:37.966Z,10.99
2023-03-13T00:13:37.982Z,10.99
2023-03-13T00:14:37.943Z,10.98
2023-03-13T00:15:37.934Z,10.99
2023-03-13T00:16:37.954Z,11.02
2023-03-13T00:17:37.952Z,11.02
2023-03-13T00:18:37.891Z,11.02
2023-03-13T00:19:37.894Z,11.02
2023-03-13T00:20:37.852Z,11.06
2023-03-13T00:21:37.866Z,11.10
2023-03-13T00:22:37.834Z,11.11
2023-03-13T00:23:37.850Z,11.11
2023-03-13T00:24:37.810Z,11.09
2023-03-13T00:25:37.813Z,11.09
2023-03-13T00:26:37.813Z,11.10
2023-03-13T00:27:37.783Z,11.09
2023-03-13T00:28:37.781Z,11.07
2023-03-13T00:29:37.755Z,11.07
2023-03-13T00:30:37.796Z,11.07
2023-03-13T00:31:37.778Z,11.03
2023-03-13T00:32:37.806Z,11.03
2023-03-13T00:33:37.710Z,11.03
2023-03-13T00:34:37.695Z,11.02
2023-03-13T00:35:37.735Z,11.01
2023-03-13T00:36:37.674Z,10.99
2023-03-13T00:37:37.691Z,11.01
2023-03-13T00:38:37.651Z,11.02
2023-03-13T00:39:37.644Z,11.02
2023-03-13T00:40:37.627Z,11.02
2023-03-13T00:41:37.660Z,11.02
2023-03-13T00:42:37.611Z,11.01
2023-03-13T00:43:37.595Z,11.02
2023-03-13T00:44:37.585Z,11.01
2023-03-13T00:45:37.573Z,11.02
2023-03-13T00:46:37.645Z,11.03
2023-03-13T00:47:37.582Z,11.03
2023-03-13T00:48:37.541Z,11.03
2023-03-13T00:49:37.526Z,11.06
2023-03-13T00:50:37.517Z,11.03
2023-03-13T00:51:37.503Z,11.03
2023-03-13T00:52:37.518Z,11.02
2023-03-13T00:53:37.482Z,10.98
2023-03-13T00:54:37.481Z,10.94
2023-03-13T00:55:37.460Z,10.88
2023-03-13T00:56:37.461Z,10.78
2023-03-13T00:57:37.473Z,10.71
2023-03-13T00:58:37.448Z,10.65
2023-03-13T00:59:37.424Z,10.60
2023-03-13T01:00:37.406Z,10.56
2023-03-13T01:01:37.420Z,10.53
2023-03-13T01:02:37.458Z,10.44
2023-03-13T01:03:37.453Z,10.40
2023-03-13T01:04:37.392Z,10.37
2023-03-13T01:05:37.354Z,10.34
2023-03-13T01:06:37.340Z,10.32
2023-03-13T01:07:37.339Z,10.28
2023-03-13T01:08:37.329Z,10.24
2023-03-13T01:09:37.345Z,10.19
2023-03-13T01:10:37.309Z,10.15
2023-03-13T01:11:37.334Z,10.12
2023-03-13T01:12:37.275Z,10.07
2023-03-13T01:13:37.265Z,10.06
2023-03-13T01:14:37.283Z,10.06
2023-03-13T01:15:37.320Z,10.04
2023-03-13T01:16:37.249Z,10.04
2023-03-13T01:17:37.239Z,10.03
2023-03-13T01:18:37.219Z,10.01
2023-03-13T01:19:37.225Z,9.97
2023-03-13T01:20:37.193Z,9.96
2023-03-13T01:21:37.207Z,9.93
2023-03-13T01:22:37.181Z,9.89
2023-03-13T01:23:37.171Z,9.86
2023-03-13T01:24:37.189Z,9.88
2023-03-13T01:25:37.135Z,9.85
2023-03-13T01:26:37.151Z,9.82
2023-03-13T01:27:37.205Z,9.81
2023-03-13T01:28:37.118Z,9.81
2023-03-13T01:29:37.099Z,9.78
2023-03-13T01:30:37.096Z,9.76
2023-03-13T01:31:37.174Z,9.75
2023-03-13T01:32:37.114Z,9.73
2023-03-13T01:33:37.058Z,9.71
2023-03-13T01:34:37.053Z,9.73
2023-03-13T01:35:37.061Z,9.70
2023-03-13T01:36:37.025Z,9.71
2023-03-13T01:37:37.034Z,9.70
2023-03-13T01:38:37.028Z,9.70
2023-03-13T01:39:36.988Z,9.70
2023-03-13T01:40:36.984Z,9.70
2023-03-13T01:41:36.970Z,9.68
2023-03-13T01:42:36.960Z,9.67
2023-03-13T01:43:36.958Z,9.68
2023-03-13T01:44:36.965Z,9.66
2023-03-13T01:45:36.928Z,9.66
2023-03-13T01:46:36.980Z,9.64
2023-03-13T01:47:36.902Z,9.63
2023-03-13T01:48:36.896Z,9.63
2023-03-13T01:49:36.897Z,9.60
2023-03-13T01:50:36.894Z,9.60
2023-03-13T01:51:36.859Z,9.58
2023-03-13T01:52:36.849Z,9.58
2023-03-13T01:53:36.840Z,9.60
2023-03-13T01:54:36.834Z,9.58
2023-03-13T01:55:36.839Z,9.57
2023-03-13T01:56:36.813Z,9.58
2023-03-13T01:57:36.800Z,9.57
2023-03-13T01:58:36.788Z,9.57
2023-03-13T01:59:36.782Z,9.57
2023-03-13T02:00:36.858Z,9.57
2023-03-13T02:01:36.790Z,9.57
2023-03-13T02:02:36.824Z,9.56
2023-03-13T02:03:36.731Z,9.56
2023-03-13T02:04:36.732Z,9.56
2023-03-13T02:05:36.716Z,9.56
2023-03-13T02:06:36.743Z,9.53
2023-03-13T02:07:36.689Z,9.53
2023-03-13T02:08:36.681Z,9.56
2023-03-13T02:09:36.696Z,9.53
2023-03-13T02:10:36.667Z,9.56
2023-03-13T02:11:36.642Z,9.56
2023-03-13T02:12:36.639Z,9.56
2023-03-13T02:13:36.632Z,9.57
2023-03-13T02:14:36.638Z,9.57
2023-03-13T02:15:36.613Z,9.56
2023-03-13T02:16:36.589Z,9.56
2023-03-13T02:17:36.581Z,9.56
2023-03-13T02:18:36.571Z,9.56
2023-03-13T02:19:36.559Z,9.56
2023-03-13T02:20:36.575Z,9.58
2023-03-13T02:21:36.534Z,9.58
2023-03-13T02:22:36.551Z,9.60
2023-03-13T02:23:36.512Z,9.60
2023-03-13T02:24:36.511Z,9.63
2023-03-13T02:25:36.491Z,9.64
2023-03-13T02:26:36.492Z,9.66
2023-03-13T02:27:36.486Z,9.67
2023-03-13T02:28:36.486Z,9.67
2023-03-13T02:29:36.456Z,9.70
2023-03-13T02:30:36.443Z,9.70
2023-03-13T02:31:36.498Z,9.70
2023-03-13T02:32:36.484Z,9.70
2023-03-13T02:33:36.401Z,9.71
2023-03-13T02:34:36.405Z,9.71
2023-03-13T02:35:36.427Z,9.71
2023-03-13T02:36:36.383Z,9.73
2023-03-13T02:37:36.361Z,9.73
2023-03-13T02:38:36.380Z,9.71
2023-03-13T02:39:36.348Z,9.71
2023-03-13T02:40:36.332Z,9.70
2023-03-13T02:41:36.321Z,9.70
2023-03-13T02:42:36.318Z,9.71
2023-03-13T02:43:36.304Z,9.68
2023-03-13T02:44:36.321Z,9.70
2023-03-13T02:45:36.274Z,9.68
2023-03-13T02:46:36.296Z,9.68
2023-03-13T02:47:36.256Z,9.67
2023-03-13T02:48:36.256Z,9.70
2023-03-13T02:49:36.254Z,9.68
2023-03-13T02:50:36.233Z,9.68
2023-03-13T02:51:36.215Z,9.68
2023-03-13T02:52:36.214Z,9.67
2023-03-13T02:53:36.201Z,9.67
2023-03-13T02:54:36.220Z,9.68
2023-03-13T02:55:36.172Z,9.70
2023-03-13T02:56:36.172Z,9.71
2023-03-13T02:57:36.159Z,9.70
2023-03-13T02:58:44.089Z,9.71
2023-03-13T02:59:37.163Z,9.71
2023-03-13T03:00:36.201Z,9.75
2023-03-13T03:01:36.114Z,9.73
2023-03-13T03:02:36.104Z,9.75
2023-03-13T03:03:36.174Z,9.71
2023-03-13T03:04:36.079Z,9.75
2023-03-13T03:05:36.098Z,9.76
2023-03-13T03:06:36.082Z,9.75
2023-03-13T03:07:36.050Z,9.76
2023-03-13T03:08:36.038Z,9.76
2023-03-13T03:09:36.035Z,9.76
2023-03-13T03:10:36.012Z,9.76
2023-03-13T03:11:36.030Z,9.78
2023-03-13T03:12:35.993Z,9.78
2023-03-13T03:13:35.982Z,9.75
2023-03-13T03:14:35.974Z,9.76
2023-03-13T03:15:35.964Z,9.78
2023-03-13T03:16:36.024Z,9.82
2023-03-13T03:17:35.964Z,9.83
2023-03-13T03:18:35.929Z,9.82
2023-03-13T03:19:35.922Z,9.83
2023-03-13T03:20:35.908Z,9.85
2023-03-13T03:21:43.674Z,9.86
2023-03-13T03:22:35.905Z,9.88
2023-03-13T03:23:37.713Z,9.88
2023-03-13T03:24:35.864Z,9.89
2023-03-13T03:25:35.859Z,9.89
2023-03-13T03:26:35.842Z,9.91
2023-03-13T03:27:35.831Z,9.91
2023-03-13T03:28:35.845Z,9.89
2023-03-13T03:29:35.811Z,9.89
2023-03-13T03:30:35.797Z,9.91
2023-03-13T03:31:35.865Z,9.96
2023-03-13T03:32:35.904Z,9.96
2023-03-13T03:33:35.771Z,9.96
2023-03-13T03:34:35.793Z,9.96
2023-03-13T03:35:35.784Z,9.97
2023-03-13T03:36:35.745Z,9.99
2023-03-13T03:37:35.723Z,9.99
2023-03-13T03:38:35.745Z,9.99
2023-03-13T03:39:35.701Z,10.00
2023-03-13T03:40:35.745Z,9.99
2023-03-13T03:41:35.672Z,10.03
2023-03-13T03:42:35.675Z,10.04
2023-03-13T03:43:35.663Z,10.03
2023-03-13T03:44:35.662Z,10.03
2023-03-13T03:45:35.717Z,10.06
2023-03-13T03:46:35.629Z,10.06
2023-03-13T03:47:35.609Z,10.06
2023-03-13T03:48:35.602Z,10.07
2023-03-13T03:49:35.590Z,10.06
2023-03-13T03:50:35.621Z,10.07
2023-03-13T03:51:35.572Z,10.09
2023-03-13T03:52:35.562Z,10.10
2023-03-13T03:53:35.544Z,10.12
2023-03-13T03:54:35.572Z,10.14
2023-03-13T03:55:35.523Z,10.14
2023-03-13T03:56:35.542Z,10.15
2023-03-13T03:57:35.506Z,10.14
2023-03-13T03:58:35.497Z,10.15
2023-03-13T03:59:35.485Z,10.17
2023-03-13T04:00:35.475Z,10.19
2023-03-13T04:01:35.465Z,10.18
2023-03-13T04:02:35.555Z,10.19
2023-03-13T04:03:35.555Z,10.21
2023-03-13T04:04:35.429Z,10.19
2023-03-13T04:05:35.424Z,10.21
2023-03-13T04:06:35.410Z,10.25
2023-03-13T04:07:35.429Z,10.24
2023-03-13T04:08:35.415Z,10.25
2023-03-13T04:09:35.376Z,10.25
2023-03-13T04:10:35.407Z,10.25
2023-03-13T04:11:35.360Z,10.25
2023-03-13T04:12:35.373Z,10.26
2023-03-13T04:13:35.339Z,10.28
2023-03-13T04:14:35.328Z,10.30
2023-03-13T04:15:35.336Z,10.32
2023-03-13T04:16:35.355Z,10.30
2023-03-13T04:17:35.320Z,10.32
2023-03-13T04:18:35.281Z,10.33
2023-03-13T04:19:35.287Z,10.34
2023-03-13T04:20:35.291Z,10.33
2023-03-13T04:21:35.261Z,10.34
2023-03-13T04:22:35.261Z,10.37
2023-03-13T04:23:35.228Z,10.36
2023-03-13T04:24:35.225Z,10.36
2023-03-13T04:25:35.212Z,10.36
2023-03-13T04:26:35.201Z,10.34
2023-03-13T04:27:35.211Z,10.36
2023-03-13T04:28:35.173Z,10.36
2023-03-13T04:29:35.192Z,10.36
2023-03-13T04:30:35.229Z,10.39
2023-03-13T04:31:35.143Z,10.40
2023-03-13T04:32:35.193Z,10.40
2023-03-13T04:33:35.122Z,10.42
2023-03-13T04:34:35.135Z,10.40
2023-03-13T04:35:35.240Z,10.40
2023-03-13T04:36:35.092Z,10.42
2023-03-13T04:37:35.084Z,10.44
2023-03-13T04:38:35.070Z,10.44
2023-03-13T04:39:35.063Z,10.44
2023-03-13T04:40:35.069Z,10.44
2023-03-13T04:41:35.046Z,10.46
2023-03-13T04:42:35.023Z,10.47
2023-03-13T04:43:35.019Z,10.51
2023-03-13T04:44:35.021Z,10.47
2023-03-13T04:45:34.993Z,10.51
2023-03-13T04:46:35.028Z,10.52
2023-03-13T04:47:34.970Z,10.53
2023-03-13T04:48:34.955Z,10.56
2023-03-13T04:49:34.946Z,10.55
2023-03-13T04:50:34.963Z,10.58
2023-03-13T04:51:34.924Z,10.59
2023-03-13T04:52:34.935Z,10.58
2023-03-13T04:53:34.904Z,10.59
2023-03-13T04:54:34.892Z,10.63
2023-03-13T04:55:34.879Z,10.65
2023-03-13T04:56:43.284Z,10.66
2023-03-13T04:57:35.882Z,10.65
2023-03-13T04:58:34.841Z,10.66
2023-03-13T04:59:34.845Z,10.68
2023-03-13T05:00:34.838Z,10.70
2023-03-13T05:01:34.884Z,10.70
2023-03-13T05:02:34.806Z,10.71
2023-03-13T05:03:34.794Z,10.73
2023-03-13T05:04:34.791Z,10.73
2023-03-13T05:05:34.849Z,10.71
2023-03-13T05:06:34.756Z,10.76
2023-03-13T05:07:34.779Z,10.77
2023-03-13T05:08:34.732Z,10.77
2023-03-13T05:09:34.717Z,10.80
2023-03-13T05:10:34.714Z,10.81
2023-03-13T05:11:34.707Z,10.81
2023-03-13T05:12:34.689Z,10.81
2023-03-13T05:13:34.701Z,10.88
2023-03-13T05:14:34.668Z,10.91
2023-03-13T05:15:34.674Z,10.92
2023-03-13T05:16:34.678Z,10.94
2023-03-13T05:17:34.626Z,10.95
2023-03-13T05:18:34.648Z,10.95
2023-03-13T05:19:34.607Z,10.96
2023-03-13T05:20:34.598Z,10.98
2023-03-13T05:21:34.593Z,10.96
2023-03-13T05:22:34.577Z,10.96
2023-03-13T05:23:34.671Z,10.99
2023-03-13T05:24:34.556Z,11.02
2023-03-13T05:25:34.574Z,11.01
2023-03-13T05:26:34.534Z,11.01
2023-03-13T05:27:34.517Z,11.01
2023-03-13T05:28:34.511Z,11.02
2023-03-13T05:29:34.496Z,11.02
2023-03-13T05:30:34.488Z,11.02
2023-03-13T05:31:34.541Z,11.03
2023-03-13T05:32:34.508Z,11.09
2023-03-13T05:33:34.496Z,11.10
2023-03-13T05:34:34.509Z,11.09
2023-03-13T05:35:34.516Z,11.07
2023-03-13T05:36:34.448Z,11.10
2023-03-13T05:37:34.410Z,11.10
2023-03-13T05:38:34.477Z,11.11
2023-03-13T05:39:34.446Z,11.13
2023-03-13T05:40:34.473Z,11.13
2023-03-13T05:41:34.488Z,11.13
2023-03-13T05:42:34.444Z,11.14
2023-03-13T05:43:34.355Z,11.13
2023-03-13T05:44:34.387Z,11.16
2023-03-13T05:45:34.344Z,11.16
2023-03-13T05:46:34.349Z,11.20
2023-03-13T05:47:34.319Z,11.20
2023-03-13T05:48:34.353Z,11.20
2023-03-13T05:49:34.300Z,11.25
2023-03-13T05:50:34.266Z,11.24
2023-03-13T05:51:34.250Z,11.25
2023-03-13T05:52:34.255Z,11.27
2023-03-13T05:53:34.238Z,11.27
2023-03-13T05:54:34.240Z,11.27
2023-03-13T05:55:34.198Z,11.28
2023-03-13T05:56:34.186Z,11.29
2023-03-13T05:57:34.197Z,11.31
2023-03-13T05:58:34.169Z,11.28
2023-03-13T05:59:34.178Z,11.29
2023-03-13T06:00:34.145Z,11.31
2023-03-13T06:01:34.135Z,11.32
2023-03-13T06:02:34.119Z,11.31
2023-03-13T06:03:34.247Z,11.31
2023-03-13T06:04:34.230Z,11.32
2023-03-13T06:05:34.086Z,11.34
2023-03-13T06:06:34.077Z,11.35
2023-03-13T06:07:34.054Z,11.34
2023-03-13T06:08:34.060Z,11.35
2023-03-13T06:09:34.070Z,11.38
2023-03-13T06:10:34.026Z,11.39
2023-03-13T06:11:34.014Z,11.39
2023-03-13T06:12:34.012Z,11.41
2023-03-13T06:13:33.995Z,11.43
2023-03-13T06:14:34.035Z,11.46
2023-03-13T06:15:33.970Z,11.46
2023-03-13T06:16:34.010Z,11.47
2023-03-13T06:17:33.948Z,11.46
2023-03-13T06:18:33.934Z,11.49
2023-03-13T06:19:33.950Z,11.52
2023-03-13T06:20:33.919Z,11.52
2023-03-13T06:21:33.895Z,11.54
2023-03-13T06:22:33.883Z,11.56
2023-03-13T06:23:33.885Z,11.57
2023-03-13T06:24:33.895Z,11.61
2023-03-13T06:25:33.858Z,11.64
2023-03-13T06:26:33.858Z,11.62
2023-03-13T06:27:33.839Z,11.62
2023-03-13T06:28:33.822Z,11.64
2023-03-13T06:29:33.806Z,11.67
2023-03-13T06:30:33.819Z,11.68
2023-03-13T06:31:33.860Z,11.71
2023-03-13T06:32:33.857Z,11.71
2023-03-13T06:33:33.767Z,11.74
2023-03-13T06:34:33.757Z,11.75
2023-03-13T06:35:41.033Z,11.77
2023-03-13T06:36:34.758Z,11.77
2023-03-13T06:37:33.735Z,11.82
2023-03-13T06:38:33.737Z,11.85
2023-03-13T06:39:33.687Z,11.86
2023-03-13T06:40:33.685Z,11.87
2023-03-13T06:41:33.668Z,11.89
2023-03-13T06:42:33.708Z,11.89
2023-03-13T06:43:33.652Z,11.89
2023-03-13T06:44:33.635Z,11.94
2023-03-13T06:45:33.630Z,11.96
2023-03-13T06:46:33.720Z,11.94
2023-03-13T06:47:33.622Z,11.94
2023-03-13T06:48:33.593Z,11.96
2023-03-13T06:49:33.578Z,11.99
2023-03-13T06:50:33.570Z,11.99
2023-03-13T06:51:33.557Z,11.97
2023-03-13T06:52:43.166Z,11.97
2023-03-13T06:53:34.553Z,12.01
2023-03-13T06:54:33.527Z,11.99
2023-03-13T06:55:33.515Z,12.01
2023-03-13T06:56:33.507Z,12.01
2023-03-13T06:57:33.489Z,12.02
2023-03-13T06:58:33.500Z,12.02
2023-03-13T06:59:33.487Z,12.01
2023-03-13T07:00:33.499Z,12.01
2023-03-13T07:01:33.485Z,12.04
2023-03-13T07:02:33.431Z,12.05
2023-03-13T07:03:33.474Z,12.09
2023-03-13T07:04:33.434Z,12.11
2023-03-13T07:05:33.424Z,12.15
2023-03-13T07:06:33.391Z,12.16
2023-03-13T07:07:33.382Z,12.19
2023-03-13T07:08:33.398Z,12.20
2023-03-13T07:09:33.364Z,12.20
2023-03-13T07:10:33.345Z,12.20
2023-03-13T07:11:33.355Z,12.24
2023-03-13T07:12:33.326Z,12.26
2023-03-13T07:13:33.305Z,12.29
2023-03-13T07:14:33.296Z,12.31
2023-03-13T07:15:33.286Z,12.33
2023-03-13T07:16:33.325Z,12.37
2023-03-13T07:17:33.332Z,12.37
2023-03-13T07:18:33.329Z,12.39
2023-03-13T07:19:33.245Z,12.42
2023-03-13T07:20:33.276Z,12.42
2023-03-13T07:21:33.217Z,12.42
2023-03-13T07:22:33.244Z,12.42
2023-03-13T07:23:33.198Z,12.44
2023-03-13T07:24:33.213Z,12.49
2023-03-13T07:25:33.174Z,12.54
2023-03-13T07:26:33.179Z,12.56
2023-03-13T07:27:33.172Z,12.60
2023-03-13T07:28:34.442Z,12.60
2023-03-13T07:29:33.140Z,12.62
2023-03-13T07:30:33.145Z,12.62
2023-03-13T07:31:33.152Z,12.60
2023-03-13T07:32:33.165Z,12.60
2023-03-13T07:33:33.102Z,12.60
2023-03-13T07:34:33.079Z,12.60
2023-03-13T07:35:33.072Z,12.63
2023-03-13T07:36:33.101Z,12.64
2023-03-13T07:37:33.041Z,12.67
2023-03-13T07:38:33.036Z,12.70
2023-03-13T07:39:33.044Z,12.74
2023-03-13T07:40:32.999Z,12.78
2023-03-13T07:41:32.990Z,12.78
2023-03-13T07:42:32.991Z,12.79
2023-03-13T07:43:32.987Z,12.82
2023-03-13T07:44:32.980Z,12.88
2023-03-13T07:45:33.034Z,12.88
2023-03-13T07:46:32.940Z,12.87
2023-03-13T07:47:32.924Z,12.88
2023-03-13T07:48:32.933Z,12.89
2023-03-13T07:49:32.929Z,12.89
2023-03-13T07:50:32.956Z,12.95
2023-03-13T07:51:42.983Z,12.97
2023-03-13T07:52:33.924Z,12.99
2023-03-13T07:53:32.924Z,13.02
2023-03-13T07:54:32.842Z,13.02
2023-03-13T07:55:32.866Z,13.02
2023-03-13T07:56:32.830Z,13.03
2023-03-13T07:57:32.814Z,13.04
2023-03-13T07:58:32.807Z,13.07
2023-03-13T07:59:32.790Z,13.09
2023-03-13T08:00:32.774Z,13.11
2023-03-13T08:01:32.805Z,13.14
2023-03-13T08:02:32.794Z,13.18
2023-03-13T08:03:32.783Z,13.21
2023-03-13T08:04:32.735Z,13.21
2023-03-13T08:05:32.727Z,13.21
2023-03-13T08:06:34.136Z,13.20
2023-03-13T08:07:32.720Z,13.22
2023-03-13T08:08:32.688Z,13.25
2023-03-13T08:09:32.675Z,13.25
2023-03-13T08:10:32.664Z,13.29
2023-03-13T08:11:32.660Z,13.29
2023-03-13T08:12:32.661Z,13.30
2023-03-13T08:13:32.635Z,13.27
2023-03-13T08:14:32.624Z,13.27
2023-03-13T08:15:32.621Z,13.27
2023-03-13T08:16:32.609Z,13.32
2023-03-13T08:17:32.612Z,13.38
2023-03-13T08:18:32.575Z,13.44
2023-03-13T08:19:32.561Z,13.46
2023-03-13T08:20:32.557Z,13.46
2023-03-13T08:21:32.539Z,13.46
2023-03-13T08:22:32.561Z,13.46
2023-03-13T08:23:32.520Z,13.47
2023-03-13T08:24:32.525Z,13.49
2023-03-13T08:25:32.490Z,13.46
2023-03-13T08:26:32.491Z,13.43
2023-03-13T08:27:32.482Z,13.44
2023-03-13T08:28:32.482Z,13.47
2023-03-13T08:29:32.470Z,13.51
2023-03-13T08:30:32.497Z,13.49
2023-03-13T08:31:32.422Z,13.44
2023-03-13T08:32:32.450Z,13.46
2023-03-13T08:33:32.402Z,13.49
2023-03-13T08:34:32.401Z,13.49
2023-03-13T08:35:32.461Z,13.51
2023-03-13T08:36:32.371Z,13.54
2023-03-13T08:37:32.380Z,13.58
2023-03-13T08:38:32.355Z,13.58
2023-03-13T08:39:32.340Z,13.56
2023-03-13T08:40:32.352Z,13.59
2023-03-13T08:41:32.348Z,13.59
2023-03-13T08:42:32.313Z,13.61
2023-03-13T08:43:32.301Z,13.59
2023-03-13T08:44:32.284Z,13.59
2023-03-13T08:45:32.278Z,13.61
2023-03-13T08:46:32.331Z,13.62
2023-03-13T08:47:32.256Z,13.63
2023-03-13T08:48:32.249Z,13.65
2023-03-13T08:49:32.255Z,13.63
2023-03-13T08:50:32.231Z,13.63
2023-03-13T08:51:32.208Z,13.63
2023-03-13T08:52:32.207Z,13.63
2023-03-13T08:53:32.193Z,13.63
2023-03-13T08:54:32.200Z,13.71
2023-03-13T08:55:32.174Z,13.74
2023-03-13T08:56:32.231Z,13.76
2023-03-13T08:57:32.170Z,13.77
2023-03-13T08:58:32.140Z,13.77
2023-03-13T08:59:32.132Z,13.77
2023-03-13T09:00:32.119Z,13.77
2023-03-13T09:01:32.119Z,13.80
2023-03-13T09:02:32.144Z,13.81
2023-03-13T09:03:32.131Z,13.80
2023-03-13T09:04:32.077Z,13.80
2023-03-13T09:05:33.038Z,13.80
2023-03-13T09:06:32.043Z,13.80
2023-03-13T09:07:32.036Z,13.77
2023-03-13T09:08:32.052Z,13.79
2023-03-13T09:09:32.015Z,13.76
2023-03-13T09:10:32.004Z,13.74
2023-03-13T09:11:31.994Z,13.73
2023-03-13T09:12:31.984Z,13.73
2023-03-13T09:13:31.982Z,13.70
2023-03-13T09:14:31.981Z,13.70
2023-03-13T09:15:31.959Z,13.71
2023-03-13T09:16:31.935Z,13.73
2023-03-13T09:17:31.934Z,13.76
2023-03-13T09:18:31.978Z,13.80
2023-03-13T09:19:31.932Z,13.89
2023-03-13T09:20:32.052Z,13.95
2023-03-13T09:21:31.901Z,13.96
2023-03-13T09:22:39.653Z,13.98
2023-03-13T09:23:31.863Z,14.07
2023-03-13T09:24:31.852Z,14.17
2023-03-13T09:25:31.867Z,14.24
2023-03-13T09:26:31.833Z,14.34
2023-03-13T09:27:31.816Z,14.44
2023-03-13T09:28:31.821Z,14.52
2023-03-13T09:29:31.821Z,14.60
2023-03-13T09:30:31.792Z,14.61
2023-03-13T09:31:31.836Z,14.72
2023-03-13T09:32:31.792Z,14.81
2023-03-13T09:33:31.744Z,14.80
2023-03-13T09:34:31.743Z,14.81
2023-03-13T09:35:31.746Z,14.90
2023-03-13T09:36:31.738Z,15.05
2023-03-13T09:37:31.823Z,15.13
2023-03-13T09:38:31.693Z,15.33
2023-03-13T09:39:31.696Z,15.43
2023-03-13T09:40:31.675Z,15.36
2023-03-13T09:41:31.683Z,15.39
2023-03-13T09:42:31.663Z,15.45
2023-03-13T09:43:31.646Z,15.46
2023-03-13T09:44:31.632Z,15.46
2023-03-13T09:45:31.622Z,15.42
2023-03-13T09:46:31.719Z,15.45
2023-03-13T09:47:31.676Z,15.67
2023-03-13T09:48:31.584Z,15.60
2023-03-13T09:49:31.578Z,15.60
2023-03-13T09:50:31.559Z,15.57
2023-03-13T09:51:31.548Z,15.56
2023-03-13T09:52:31.570Z,15.57
2023-03-13T09:53:31.550Z,15.56
2023-03-13T09:54:31.848Z,15.54
2023-03-13T09:55:31.506Z,15.49
2023-03-13T09:56:31.493Z,15.52
2023-03-13T09:57:31.491Z,15.60
2023-03-13T09:58:31.469Z,15.64
2023-03-13T09:59:31.479Z,15.68
2023-03-13T10:00:31.453Z,15.76
2023-03-13T10:01:31.590Z,15.88
2023-03-13T10:02:31.427Z,16.00
2023-03-13T10:03:31.416Z,16.16
2023-03-13T10:04:31.481Z,16.26
2023-03-13T10:05:31.424Z,16.99
2023-03-13T10:06:31.374Z,16.78
2023-03-13T10:07:31.375Z,16.74
2023-03-13T10:08:31.365Z,16.59
2023-03-13T10:09:31.347Z,16.42
2023-03-13T10:10:31.338Z,16.31
2023-03-13T10:11:31.336Z,16.20
2023-03-13T10:12:31.307Z,16.11
2023-03-13T10:13:31.304Z,16.00
2023-03-13T10:14:31.287Z,15.96
2023-03-13T10:15:31.293Z,15.97
2023-03-13T10:16:31.368Z,15.94
2023-03-13T10:17:31.344Z,15.99
2023-03-13T10:18:31.239Z,15.93
2023-03-13T10:19:31.227Z,15.92
2023-03-13T10:20:31.220Z,15.92
2023-03-13T10:21:31.236Z,16.01
2023-03-13T10:22:31.212Z,16.41
2023-03-13T10:23:31.189Z,16.40
2023-03-13T10:24:31.168Z,16.34
2023-03-13T10:25:31.195Z,16.41
2023-03-13T10:26:31.155Z,16.48
2023-03-13T10:27:31.148Z,16.55
2023-03-13T10:28:31.155Z,16.99
2023-03-13T10:29:31.116Z,17.06
2023-03-13T10:30:31.122Z,17.35
2023-03-13T10:31:31.198Z,18.06
2023-03-13T10:32:31.158Z,18.24
2023-03-13T10:33:31.070Z,17.87
2023-03-13T10:34:31.059Z,17.91
2023-03-13T10:35:31.069Z,17.70
2023-03-13T10:36:31.037Z,17.70
2023-03-13T10:37:31.037Z,17.57
2023-03-13T10:38:31.032Z,18.10
2023-03-13T10:39:31.009Z,18.99
2023-03-13T10:40:31.011Z,19.11
2023-03-13T10:41:31.049Z,19.31
2023-03-13T10:42:30.977Z,19.48
2023-03-13T10:43:30.982Z,18.99
2023-03-13T10:44:30.957Z,18.43
2023-03-13T10:45:30.958Z,17.79
2023-03-13T10:46:31.000Z,18.97
2023-03-13T10:47:30.924Z,19.55
2023-03-13T10:48:30.904Z,19.72
2023-03-13T10:49:30.907Z,19.18
2023-03-13T10:50:30.883Z,20.27
2023-03-13T10:51:30.872Z,20.38
2023-03-13T10:52:30.884Z,20.13
2023-03-13T10:53:30.856Z,18.98
2023-03-13T10:54:30.856Z,18.39
2023-03-13T10:55:30.846Z,19.15
2023-03-13T10:56:30.818Z,18.70
2023-03-13T10:57:30.842Z,18.44
2023-03-13T10:58:30.793Z,18.91
2023-03-13T10:59:30.789Z,18.76
2023-03-13T11:00:30.799Z,18.42
2023-03-13T11:01:30.766Z,18.80
2023-03-13T11:02:30.881Z,18.43
2023-03-13T11:03:30.817Z,18.59
2023-03-13T11:04:30.729Z,18.64
2023-03-13T11:05:30.749Z,19.05
2023-03-13T11:06:30.718Z,19.20
2023-03-13T11:07:30.701Z,19.33
2023-03-13T11:08:30.764Z,20.31
2023-03-13T11:09:30.679Z,20.76
2023-03-13T11:10:30.699Z,20.79
2023-03-13T11:11:30.673Z,20.81
2023-03-13T11:12:30.640Z,20.41
2023-03-13T11:13:37.078Z,19.33
2023-03-13T11:14:31.628Z,18.72
2023-03-13T11:15:30.612Z,18.36
2023-03-13T11:16:30.679Z,18.09
2023-03-13T11:17:30.591Z,17.92
2023-03-13T11:18:30.579Z,17.94
2023-03-13T11:19:30.571Z,18.06
2023-03-13T11:20:30.572Z,19.47
2023-03-13T11:21:30.552Z,20.25
2023-03-13T11:22:30.553Z,19.94
2023-03-13T11:23:30.524Z,19.94
2023-03-13T11:24:30.503Z,20.13
2023-03-13T11:25:30.502Z,19.43
2023-03-13T11:26:30.487Z,19.06
2023-03-13T11:27:30.532Z,19.10
2023-03-13T11:28:30.486Z,18.52
2023-03-13T11:29:30.473Z,18.79
2023-03-13T11:30:30.436Z,19.18
2023-03-13T11:31:30.459Z,19.02
2023-03-13T11:32:30.459Z,19.28
2023-03-13T11:33:30.429Z,20.05
2023-03-13T11:34:30.396Z,19.79
2023-03-13T11:35:30.405Z,19.51
2023-03-13T11:36:30.368Z,19.80
2023-03-13T11:37:30.358Z,19.87
2023-03-13T11:38:30.356Z,20.39
2023-03-13T11:39:30.364Z,20.42
2023-03-13T11:40:30.330Z,20.02
2023-03-13T11:41:30.377Z,19.40
2023-03-13T11:42:30.309Z,19.17
2023-03-13T11:43:30.318Z,19.31
2023-03-13T11:44:30.289Z,19.43
2023-03-13T11:45:30.379Z,19.35
2023-03-13T11:46:30.381Z,19.63
2023-03-13T11:47:30.280Z,19.05
2023-03-13T11:48:30.261Z,19.78
2023-03-13T11:49:30.240Z,19.95
2023-03-13T11:50:30.221Z,19.39
2023-03-13T11:51:30.312Z,19.51
2023-03-13T11:52:30.211Z,19.46
2023-03-13T11:53:30.182Z,19.40
2023-03-13T11:54:30.192Z,19.06
2023-03-13T11:55:30.161Z,18.67
2023-03-13T11:56:30.154Z,18.39
2023-03-13T11:57:30.152Z,18.31
2023-03-13T11:58:30.139Z,18.15
2023-03-13T11:59:30.119Z,18.39
2023-03-13T12:00:30.137Z,18.33
2023-03-13T12:01:30.102Z,18.25
2023-03-13T12:02:30.130Z,18.18
2023-03-13T12:03:30.178Z,18.29
2023-03-13T12:04:30.066Z,18.39
2023-03-13T12:05:30.117Z,19.17
2023-03-13T12:06:31.632Z,18.94
2023-03-13T12:07:30.047Z,18.65
2023-03-13T12:08:30.026Z,18.47
2023-03-13T12:09:30.009Z,18.44
2023-03-13T12:10:30.021Z,19.01
2023-03-13T12:11:29.999Z,19.28
2023-03-13T12:12:29.982Z,18.72
2023-03-13T12:13:29.967Z,18.99
2023-03-13T12:14:29.957Z,18.83
2023-03-13T12:15:29.979Z,18.99
2023-03-13T12:16:29.954Z,18.99
2023-03-13T12:17:29.957Z,19.58
2023-03-13T12:18:29.925Z,19.95
2023-03-13T12:19:29.916Z,19.88
2023-03-13T12:20:29.881Z,19.78
2023-03-13T12:21:29.930Z,19.36
2023-03-13T12:22:29.866Z,18.95
2023-03-13T12:23:29.891Z,18.68
2023-03-13T12:24:29.844Z,18.42
2023-03-13T12:25:29.970Z,18.29
2023-03-13T12:26:29.831Z,18.25
2023-03-13T12:27:29.822Z,18.36
2023-03-13T12:28:29.857Z,18.36
2023-03-13T12:29:29.794Z,18.39
2023-03-13T12:30:29.826Z,18.44
2023-03-13T12:31:29.795Z,20.21
2023-03-13T12:32:29.789Z,20.59
2023-03-13T12:33:29.749Z,20.79
2023-03-13T12:34:29.733Z,21.44
2023-03-13T12:35:29.740Z,21.06
2023-03-13T12:36:29.793Z,21.98
2023-03-13T12:37:29.728Z,22.62
2023-03-13T12:38:29.688Z,23.26
2023-03-13T12:39:29.681Z,23.01
2023-03-13T12:40:29.719Z,22.97
2023-03-13T12:41:29.663Z,22.13
2023-03-13T12:42:29.647Z,21.78
2023-03-13T12:43:29.690Z,21.67
2023-03-13T12:44:29.640Z,21.61
2023-03-13T12:45:29.744Z,21.88
2023-03-13T12:46:29.638Z,22.78
2023-03-13T12:47:29.621Z,23.05
2023-03-13T12:48:29.634Z,22.84
2023-03-13T12:49:29.577Z,22.80
2023-03-13T12:50:29.558Z,22.84
2023-03-13T12:51:29.554Z,23.09
2023-03-13T12:52:29.564Z,23.57
2023-03-13T12:53:29.538Z,23.68
2023-03-13T12:54:29.536Z,22.39
2023-03-13T12:55:29.560Z,20.83
2023-03-13T12:56:29.494Z,19.98
2023-03-13T12:57:29.531Z,20.03